Depoe Bay, Oregon
Current Conditions -  °F | °C
As of 12:15 PM on Wednesday 26 Nov 2014 (Local Time) from KONP Reporting Station
Clear Clear  
Wind Chill: 61°   Ceiling: Unl
Heat Index: 61°   Visibility: 10mi
Dew Point: 55°   Wind: 5mph
Humidity: 82%   Direction: 190°S
Pressure: 30.14"   Gusts: NA
Location:  44.81°N, 124.06°W
Report Text: KONP 262015Z AUTO 19004KT 10SM CLR 16/13 A3014 RMK AO2
Loading
Personal Weather Stations






























Interactive Weather Map New forecast layout! Learn more

10-Day Weather Forecast

Advertisements
Track Severe Weather on mobile